sensor_id;sensor_type;location;lat;lon;timestamp;temperature;humidity
36594;DHT22;22603;47.900;8.146;2023-04-01T00:01:39;4.20;99.90
36594;DHT22;22603;47.900;8.146;2023-04-01T00:04:26;4.30;99.90
36594;DHT22;22603;47.900;8.146;2023-04-01T00:07:13;4.10;99.90
36594;DHT22;22603;47.900;8.146;2023-04-01T00:10:00;4.20;99.90
36594;DHT22;22603;47.900;8.146;2023-04-01T00:12:47;4.20;99.90
36594;DHT22;22603;47.900;8.146;2023-04-01T00:15:35;4.20;99.90
36594;DHT22;22603;47.900;8.146;2023-04-01T00:18:24;4.20;99.90
36594;DHT22;22603;47.900;8.146;2023-04-01T00:21:12;4.20;99.90
36594;DHT22;22603;47.900;8.146;2023-04-01T00:23:59;4.20;99.90
36594;DHT22;22603;47.900;8.146;2023-04-01T00:26:48;4.10;99.90
36594;DHT22;22603;47.900;8.146;2023-04-01T00:29:35;4.10;99.90
36594;DHT22;22603;47.900;8.146;2023-04-01T00:32:22;4.00;99.90
36594;DHT22;22603;47.900;8.146;2023-04-01T00:35:10;4.00;99.90
36594;DHT22;22603;47.900;8.146;2023-04-01T00:37:58;3.90;99.90
36594;DHT22;22603;47.900;8.146;2023-04-01T00:40:46;3.90;99.90
36594;DHT22;22603;47.900;8.146;2023-04-01T00:43:34;3.90;99.90
36594;DHT22;22603;47.900;8.146;2023-04-01T00:46:21;4.00;99.90
36594;DHT22;22603;47.900;8.146;2023-04-01T00:49:09;4.00;99.90
36594;DHT22;22603;47.900;8.146;2023-04-01T00:52:00;3.90;99.90
36594;DHT22;22603;47.900;8.146;2023-04-01T00:54:54;3.90;99.90
36594;DHT22;22603;47.900;8.146;2023-04-01T00:57:43;3.90;99.90
36594;DHT22;22603;47.900;8.146;2023-04-01T01:00:32;3.90;99.90
36594;DHT22;22603;47.900;8.146;2023-04-01T01:03:19;3.90;99.90
36594;DHT22;22603;47.900;8.146;2023-04-01T01:06:26;4.00;99.90
36594;DHT22;22603;47.900;8.146;2023-04-01T01:09:26;4.00;99.90
36594;DHT22;22603;47.900;8.146;2023-04-01T01:12:18;3.90;99.90
36594;DHT22;22603;47.900;8.146;2023-04-01T01:15:13;3.90;99.90
36594;DHT22;22603;47.900;8.146;2023-04-01T01:18:07;4.00;99.90
36594;DHT22;22603;47.900;8.146;2023-04-01T01:21:30;4.00;99.90
36594;DHT22;22603;47.900;8.146;2023-04-01T01:24:39;4.10;99.90
36594;DHT22;22603;47.900;8.146;2023-04-01T01:27:29;4.10;99.90
36594;DHT22;22603;47.900;8.146;2023-04-01T01:30:29;4.10;99.90
36594;DHT22;22603;47.900;8.146;2023-04-01T01:33:45;4.20;99.90
36594;DHT22;22603;47.900;8.146;2023-04-01T01:36:37;4.20;99.90
36594;DHT22;22603;47.900;8.146;2023-04-01T01:39:28;4.20;99.90
36594;DHT22;22603;47.900;8.146;2023-04-01T01:42:21;4.20;99.90
36594;DHT22;22603;47.900;8.146;2023-04-01T01:45:10;4.40;99.90
36594;DHT22;22603;47.900;8.146;2023-04-01T01:47:59;4.30;99.90
36594;DHT22;22603;47.900;8.146;2023-04-01T01:50:53;4.30;99.90
36594;DHT22;22603;47.900;8.146;2023-04-01T01:53:42;4.30;99.90
36594;DHT22;22603;47.900;8.146;2023-04-01T01:56:29;4.30;99.90
36594;DHT22;22603;47.900;8.146;2023-04-01T01:59:20;4.30;99.90
36594;DHT22;22603;47.900;8.146;2023-04-01T02:02:08;4.50;99.90
36594;DHT22;22603;47.900;8.146;2023-04-01T02:04:59;4.40;99.90
36594;DHT22;22603;47.900;8.146;2023-04-01T02:07:51;4.40;99.90
36594;DHT22;22603;47.900;8.146;2023-04-01T02:10:47;4.40;99.90
36594;DHT22;22603;47.900;8.146;2023-04-01T02:13:39;4.40;99.90
36594;DHT22;22603;47.900;8.146;2023-04-01T02:16:31;4.40;99.90
36594;DHT22;22603;47.900;8.146;2023-04-01T02:19:22;4.40;99.90
36594;DHT22;22603;47.900;8.146;2023-04-01T02:22:14;4.50;99.90
36594;DHT22;22603;47.900;8.146;2023-04-01T02:25:06;4.50;99.90
36594;DHT22;22603;47.900;8.146;2023-04-01T02:27:56;4.50;99.90
36594;DHT22;22603;47.900;8.146;2023-04-01T02:30:44;4.50;99.90
36594;DHT22;22603;47.900;8.146;2023-04-01T02:33:33;4.40;99.90
36594;DHT22;22603;47.900;8.146;2023-04-01T02:36:20;4.40;99.90
36594;DHT22;22603;47.900;8.146;2023-04-01T02:39:08;4.40;99.90
36594;DHT22;22603;47.900;8.146;2023-04-01T02:41:55;4.50;99.90
36594;DHT22;22603;47.900;8.146;2023-04-01T02:44:43;4.30;99.90
36594;DHT22;22603;47.900;8.146;2023-04-01T02:47:30;4.30;99.90
36594;DHT22;22603;47.900;8.146;2023-04-01T02:50:18;4.20;99.90
36594;DHT22;22603;47.900;8.146;2023-04-01T02:53:05;4.20;99.90
36594;DHT22;22603;47.900;8.146;2023-04-01T02:55:52;4.10;99.90
36594;DHT22;22603;47.900;8.146;2023-04-01T02:58:39;4.10;99.90
36594;DHT22;22603;47.900;8.146;2023-04-01T03:01:27;4.00;99.90
36594;DHT22;22603;47.900;8.146;2023-04-01T03:04:14;4.00;99.90
36594;DHT22;22603;47.900;8.146;2023-04-01T03:07:01;3.90;99.90
36594;DHT22;22603;47.900;8.146;2023-04-01T03:09:50;3.90;99.90
36594;DHT22;22603;47.900;8.146;2023-04-01T03:12:37;3.90;99.90
36594;DHT22;22603;47.900;8.146;2023-04-01T03:15:24;3.90;99.90
36594;DHT22;22603;47.900;8.146;2023-04-01T03:18:13;3.90;99.90
36594;DHT22;22603;47.900;8.146;2023-04-01T03:21:15;3.90;99.90
36594;DHT22;22603;47.900;8.146;2023-04-01T03:24:02;3.80;99.90
36594;DHT22;22603;47.900;8.146;2023-04-01T03:26:49;3.80;99.90
36594;DHT22;22603;47.900;8.146;2023-04-01T03:29:36;3.80;99.90
36594;DHT22;22603;47.900;8.146;2023-04-01T03:32:24;3.80;99.90
36594;DHT22;22603;47.900;8.146;2023-04-01T03:35:14;3.80;99.90
36594;DHT22;22603;47.900;8.146;2023-04-01T03:38:01;3.80;99.90
36594;DHT22;22603;47.900;8.146;2023-04-01T03:40:48;3.80;99.90
36594;DHT22;22603;47.900;8.146;2023-04-01T03:43:35;3.80;99.90
36594;DHT22;22603;47.900;8.146;2023-04-01T03:46:22;3.90;99.90
36594;DHT22;22603;47.900;8.146;2023-04-01T03:49:10;4.00;99.90
36594;DHT22;22603;47.900;8.146;2023-04-01T03:51:59;3.90;99.90
36594;DHT22;22603;47.900;8.146;2023-04-01T03:54:46;3.90;99.90
36594;DHT22;22603;47.900;8.146;2023-04-01T03:57:33;3.90;99.90
36594;DHT22;22603;47.900;8.146;2023-04-01T04:00:20;3.90;99.90
36594;DHT22;22603;47.900;8.146;2023-04-01T04:03:07;3.80;99.90
36594;DHT22;22603;47.900;8.146;2023-04-01T04:05:54;3.80;99.90
36594;DHT22;22603;47.900;8.146;2023-04-01T04:08:46;3.80;99.90
36594;DHT22;22603;47.900;8.146;2023-04-01T04:11:36;3.80;99.90
36594;DHT22;22603;47.900;8.146;2023-04-01T04:14:23;3.80;99.90
36594;DHT22;22603;47.900;8.146;2023-04-01T04:17:10;3.80;99.90
36594;DHT22;22603;47.900;8.146;2023-04-01T04:20:02;3.70;99.90
36594;DHT22;22603;47.900;8.146;2023-04-01T04:22:49;3.80;99.90
36594;DHT22;22603;47.900;8.146;2023-04-01T04:25:39;3.70;99.90
36594;DHT22;22603;47.900;8.146;2023-04-01T04:28:27;3.70;99.90
36594;DHT22;22603;47.900;8.146;2023-04-01T04:31:18;3.70;99.90
36594;DHT22;22603;47.900;8.146;2023-04-01T04:34:06;3.70;99.90
36594;DHT22;22603;47.900;8.146;2023-04-01T04:36:53;3.60;99.90
36594;DHT22;22603;47.900;8.146;2023-04-01T04:39:40;3.80;99.90
36594;DHT22;22603;47.900;8.146;2023-04-01T04:42:28;3.80;99.90
36594;DHT22;22603;47.900;8.146;2023-04-01T04:45:15;3.80;99.90
36594;DHT22;22603;47.900;8.146;2023-04-01T04:48:02;3.80;99.90
36594;DHT22;22603;47.900;8.146;2023-04-01T04:50:50;3.80;99.90
36594;DHT22;22603;47.900;8.146;2023-04-01T04:53:37;3.80;99.90
36594;DHT22;22603;47.900;8.146;2023-04-01T04:56:25;3.80;99.90
36594;DHT22;22603;47.900;8.146;2023-04-01T04:59:13;3.80;99.90
36594;DHT22;22603;47.900;8.146;2023-04-01T05:02:01;3.80;99.90
36594;DHT22;22603;47.900;8.146;2023-04-01T05:04:51;3.80;99.90
36594;DHT22;22603;47.900;8.146;2023-04-01T05:07:38;3.70;99.90
36594;DHT22;22603;47.900;8.146;2023-04-01T05:10:25;3.80;99.90
36594;DHT22;22603;47.900;8.146;2023-04-01T05:13:12;3.80;99.90
36594;DHT22;22603;47.900;8.146;2023-04-01T05:16:01;3.80;99.90
36594;DHT22;22603;47.900;8.146;2023-04-01T05:18:48;3.80;99.90
36594;DHT22;22603;47.900;8.146;2023-04-01T05:21:35;3.90;99.90
36594;DHT22;22603;47.900;8.146;2023-04-01T05:24:22;3.90;99.90
36594;DHT22;22603;47.900;8.146;2023-04-01T05:27:09;4.00;99.90
36594;DHT22;22603;47.900;8.146;2023-04-01T05:29:57;4.10;99.90
36594;DHT22;22603;47.900;8.146;2023-04-01T05:32:45;4.10;99.90
36594;DHT22;22603;47.900;8.146;2023-04-01T05:35:33;4.10;99.90
36594;DHT22;22603;47.900;8.146;2023-04-01T05:38:20;4.20;99.90
36594;DHT22;22603;47.900;8.146;2023-04-01T05:41:08;4.20;99.90
36594;DHT22;22603;47.900;8.146;2023-04-01T05:43:57;4.20;99.90
36594;DHT22;22603;47.900;8.146;2023-04-01T05:46:44;4.30;99.90
36594;DHT22;22603;47.900;8.146;2023-04-01T05:49:33;4.40;99.90
36594;DHT22;22603;47.900;8.146;2023-04-01T05:52:20;4.50;99.90
36594;DHT22;22603;47.900;8.146;2023-04-01T05:55:08;4.50;99.90
36594;DHT22;22603;47.900;8.146;2023-04-01T05:57:55;4.50;99.90
36594;DHT22;22603;47.900;8.146;2023-04-01T06:00:42;4.50;99.90
36594;DHT22;22603;47.900;8.146;2023-04-01T06:03:29;4.40;99.90
36594;DHT22;22603;47.900;8.146;2023-04-01T06:06:23;4.40;99.90
36594;DHT22;22603;47.900;8.146;2023-04-01T06:09:14;4.40;99.90
36594;DHT22;22603;47.900;8.146;2023-04-01T06:15:25;4.40;99.90
36594;DHT22;22603;47.900;8.146;2023-04-01T06:18:38;4.50;99.90
36594;DHT22;22603;47.900;8.146;2023-04-01T06:25:04;4.30;99.90
36594;DHT22;22603;47.900;8.146;2023-04-01T06:28:11;4.30;99.90
36594;DHT22;22603;47.900;8.146;2023-04-01T06:31:10;4.30;99.90
36594;DHT22;22603;47.900;8.146;2023-04-01T06:34:11;4.30;99.90
36594;DHT22;22603;47.900;8.146;2023-04-01T06:37:17;4.30;99.90
36594;DHT22;22603;47.900;8.146;2023-04-01T06:40:22;4.30;99.90
36594;DHT22;22603;47.900;8.146;2023-04-01T06:43:19;4.30;99.90
36594;DHT22;22603;47.900;8.146;2023-04-01T06:46:14;4.30;99.90
36594;DHT22;22603;47.900;8.146;2023-04-01T06:49:26;4.20;99.90
36594;DHT22;22603;47.900;8.146;2023-04-01T06:52:23;4.20;99.90
36594;DHT22;22603;47.900;8.146;2023-04-01T06:55:23;4.10;99.90
36594;DHT22;22603;47.900;8.146;2023-04-01T06:58:16;4.00;99.90
36594;DHT22;22603;47.900;8.146;2023-04-01T07:01:08;3.90;99.90
36594;DHT22;22603;47.900;8.146;2023-04-01T07:04:00;3.90;99.90
36594;DHT22;22603;47.900;8.146;2023-04-01T07:06:51;3.90;99.90
36594;DHT22;22603;47.900;8.146;2023-04-01T07:09:43;3.90;99.90
36594;DHT22;22603;47.900;8.146;2023-04-01T07:12:43;3.80;99.90
36594;DHT22;22603;47.900;8.146;2023-04-01T07:15:37;3.80;99.90
36594;DHT22;22603;47.900;8.146;2023-04-01T07:18:30;3.80;99.90
36594;DHT22;22603;47.900;8.146;2023-04-01T07:21:26;3.80;99.90
36594;DHT22;22603;47.900;8.146;2023-04-01T07:24:24;3.80;99.90
36594;DHT22;22603;47.900;8.146;2023-04-01T07:27:14;3.80;99.90
36594;DHT22;22603;47.900;8.146;2023-04-01T07:30:03;3.80;99.90
36594;DHT22;22603;47.900;8.146;2023-04-01T07:32:53;3.80;99.90
36594;DHT22;22603;47.900;8.146;2023-04-01T07:35:49;3.80;99.90
36594;DHT22;22603;47.900;8.146;2023-04-01T07:38:47;3.80;99.90
36594;DHT22;22603;47.900;8.146;2023-04-01T07:41:42;3.80;99.90
36594;DHT22;22603;47.900;8.146;2023-04-01T07:44:40;3.90;99.90
36594;DHT22;22603;47.900;8.146;2023-04-01T07:47:50;4.00;99.90
36594;DHT22;22603;47.900;8.146;2023-04-01T07:50:43;4.10;99.90
36594;DHT22;22603;47.900;8.146;2023-04-01T07:53:40;4.20;99.90
36594;DHT22;22603;47.900;8.146;2023-04-01T07:56:33;4.30;99.90
36594;DHT22;22603;47.900;8.146;2023-04-01T07:59:27;4.40;99.90
36594;DHT22;22603;47.900;8.146;2023-04-01T08:02:32;4.40;99.90
36594;DHT22;22603;47.900;8.146;2023-04-01T08:05:27;4.40;99.90
36594;DHT22;22603;47.900;8.146;2023-04-01T08:08:22;4.50;99.90
36594;DHT22;22603;47.900;8.146;2023-04-01T08:11:24;4.50;99.90
36594;DHT22;22603;47.900;8.146;2023-04-01T08:14:18;4.60;99.90
36594;DHT22;22603;47.900;8.146;2023-04-01T08:17:13;4.60;99.90
36594;DHT22;22603;47.900;8.146;2023-04-01T08:20:18;4.50;99.90
36594;DHT22;22603;47.900;8.146;2023-04-01T08:23:16;4.60;99.90
36594;DHT22;22603;47.900;8.146;2023-04-01T08:26:08;4.60;99.90
36594;DHT22;22603;47.900;8.146;2023-04-01T08:29:00;4.70;99.90
36594;DHT22;22603;47.900;8.146;2023-04-01T08:31:54;4.70;99.90
36594;DHT22;22603;47.900;8.146;2023-04-01T08:34:45;4.70;99.90
36594;DHT22;22603;47.900;8.146;2023-04-01T08:37:37;4.70;99.90
36594;DHT22;22603;47.900;8.146;2023-04-01T08:40:39;4.70;99.90
36594;DHT22;22603;47.900;8.146;2023-04-01T08:44:04;4.70;99.90
36594;DHT22;22603;47.900;8.146;2023-04-01T08:47:19;4.60;99.90
36594;DHT22;22603;47.900;8.146;2023-04-01T08:53:37;4.60;99.90
36594;DHT22;22603;47.900;8.146;2023-04-01T08:56:31;4.50;99.90
36594;DHT22;22603;47.900;8.146;2023-04-01T08:59:35;4.50;99.90
36594;DHT22;22603;47.900;8.146;2023-04-01T09:02:43;4.60;99.90
36594;DHT22;22603;47.900;8.146;2023-04-01T09:05:47;4.60;99.90
36594;DHT22;22603;47.900;8.146;2023-04-01T09:08:52;4.60;99.90
36594;DHT22;22603;47.900;8.146;2023-04-01T09:15:13;4.60;99.90
36594;DHT22;22603;47.900;8.146;2023-04-01T09:22:03;4.80;99.90
36594;DHT22;22603;47.900;8.146;2023-04-01T09:25:24;4.90;99.90
36594;DHT22;22603;47.900;8.146;2023-04-01T09:28:19;4.90;99.90
36594;DHT22;22603;47.900;8.146;2023-04-01T09:31:26;5.00;99.90
36594;DHT22;22603;47.900;8.146;2023-04-01T09:34:30;5.00;99.90
36594;DHT22;22603;47.900;8.146;2023-04-01T09:37:19;5.00;99.90
36594;DHT22;22603;47.900;8.146;2023-04-01T09:40:21;5.00;99.90
36594;DHT22;22603;47.900;8.146;2023-04-01T09:43:22;5.20;99.90
36594;DHT22;22603;47.900;8.146;2023-04-01T09:46:24;5.20;99.90
36594;DHT22;22603;47.900;8.146;2023-04-01T09:49:41;5.10;99.90
36594;DHT22;22603;47.900;8.146;2023-04-01T09:52:34;5.20;99.90
36594;DHT22;22603;47.900;8.146;2023-04-01T09:59:08;5.20;99.90
36594;DHT22;22603;47.900;8.146;2023-04-01T10:16:14;5.50;99.90
36594;DHT22;22603;47.900;8.146;2023-04-01T10:23:00;5.30;99.90
36594;DHT22;22603;47.900;8.146;2023-04-01T10:29:47;5.30;99.90
36594;DHT22;22603;47.900;8.146;2023-04-01T10:33:10;5.20;99.90
36594;DHT22;22603;47.900;8.146;2023-04-01T10:40:02;5.40;99.90
36594;DHT22;22603;47.900;8.146;2023-04-01T10:43:38;5.50;99.90
36594;DHT22;22603;47.900;8.146;2023-04-01T10:47:08;5.50;99.90
36594;DHT22;22603;47.900;8.146;2023-04-01T10:50:16;5.40;99.90
36594;DHT22;22603;47.900;8.146;2023-04-01T10:53:31;5.40;99.90
36594;DHT22;22603;47.900;8.146;2023-04-01T10:56:38;5.40;99.90
36594;DHT22;22603;47.900;8.146;2023-04-01T10:59:53;5.30;99.90
36594;DHT22;22603;47.900;8.146;2023-04-01T11:03:30;5.30;99.90
36594;DHT22;22603;47.900;8.146;2023-04-01T11:10:53;5.20;99.90
36594;DHT22;22603;47.900;8.146;2023-04-01T11:17:34;5.20;99.90
36594;DHT22;22603;47.900;8.146;2023-04-01T11:21:01;5.30;99.90
36594;DHT22;22603;47.900;8.146;2023-04-01T11:23:54;5.20;99.90
36594;DHT22;22603;47.900;8.146;2023-04-01T11:26:55;5.20;99.90
36594;DHT22;22603;47.900;8.146;2023-04-01T11:30:04;5.40;99.90
36594;DHT22;22603;47.900;8.146;2023-04-01T11:32:55;5.40;99.90
36594;DHT22;22603;47.900;8.146;2023-04-01T11:35:57;5.40;99.90
36594;DHT22;22603;47.900;8.146;2023-04-01T11:39:05;5.40;99.90
36594;DHT22;22603;47.900;8.146;2023-04-01T11:42:06;5.40;99.90
36594;DHT22;22603;47.900;8.146;2023-04-01T11:45:07;5.30;99.90
36594;DHT22;22603;47.900;8.146;2023-04-01T11:48:09;5.10;99.90
36594;DHT22;22603;47.900;8.146;2023-04-01T11:54:33;5.00;99.90
36594;DHT22;22603;47.900;8.146;2023-04-01T11:57:37;4.90;99.90
36594;DHT22;22603;47.900;8.146;2023-04-01T12:00:58;4.70;99.90
36594;DHT22;22603;47.900;8.146;2023-04-01T12:04:24;4.70;99.90
36594;DHT22;22603;47.900;8.146;2023-04-01T12:07:26;4.70;99.90
36594;DHT22;22603;47.900;8.146;2023-04-01T12:10:18;4.80;99.90
36594;DHT22;22603;47.900;8.146;2023-04-01T12:13:14;4.80;99.90
36594;DHT22;22603;47.900;8.146;2023-04-01T12:16:28;4.80;99.90
36594;DHT22;22603;47.900;8.146;2023-04-01T12:19:23;4.80;99.90
36594;DHT22;22603;47.900;8.146;2023-04-01T12:22:27;4.90;99.90
36594;DHT22;22603;47.900;8.146;2023-04-01T12:25:27;5.00;99.90
36594;DHT22;22603;47.900;8.146;2023-04-01T12:28:25;5.10;99.90
36594;DHT22;22603;47.900;8.146;2023-04-01T12:31:25;5.20;99.90
36594;DHT22;22603;47.900;8.146;2023-04-01T12:34:35;5.20;99.90
36594;DHT22;22603;47.900;8.146;2023-04-01T12:37:35;5.40;99.90
36594;DHT22;22603;47.900;8.146;2023-04-01T12:40:49;5.50;99.90
36594;DHT22;22603;47.900;8.146;2023-04-01T12:50:34;5.60;99.90
36594;DHT22;22603;47.900;8.146;2023-04-01T12:53:42;5.60;99.90
36594;DHT22;22603;47.900;8.146;2023-04-01T12:56:41;5.70;99.90
36594;DHT22;22603;47.900;8.146;2023-04-01T13:00:03;5.70;99.90
36594;DHT22;22603;47.900;8.146;2023-04-01T13:03:07;5.80;99.90
36594;DHT22;22603;47.900;8.146;2023-04-01T13:06:21;6.00;99.90
36594;DHT22;22603;47.900;8.146;2023-04-01T13:09:25;6.10;99.90
36594;DHT22;22603;47.900;8.146;2023-04-01T13:12:36;6.20;99.90
36594;DHT22;22603;47.900;8.146;2023-04-01T13:15:27;6.20;99.90
36594;DHT22;22603;47.900;8.146;2023-04-01T13:18:22;6.40;99.90
36594;DHT22;22603;47.900;8.146;2023-04-01T13:21:20;6.60;99.90
36594;DHT22;22603;47.900;8.146;2023-04-01T13:24:24;6.70;99.90
36594;DHT22;22603;47.900;8.146;2023-04-01T13:27:18;6.80;99.90
36594;DHT22;22603;47.900;8.146;2023-04-01T13:30:23;6.90;99.90
36594;DHT22;22603;47.900;8.146;2023-04-01T13:33:19;6.90;99.90
36594;DHT22;22603;47.900;8.146;2023-04-01T13:36:23;6.80;99.90
36594;DHT22;22603;47.900;8.146;2023-04-01T13:39:38;6.90;99.90
36594;DHT22;22603;47.900;8.146;2023-04-01T13:42:31;6.70;99.90
36594;DHT22;22603;47.900;8.146;2023-04-01T13:45:23;6.70;99.90
36594;DHT22;22603;47.900;8.146;2023-04-01T13:48:53;6.80;99.90
36594;DHT22;22603;47.900;8.146;2023-04-01T13:52:21;6.90;99.90
36594;DHT22;22603;47.900;8.146;2023-04-01T13:55:36;7.00;99.90
36594;DHT22;22603;47.900;8.146;2023-04-01T13:58:55;7.30;99.90
36594;DHT22;22603;47.900;8.146;2023-04-01T14:01:48;7.40;99.90
36594;DHT22;22603;47.900;8.146;2023-04-01T14:04:58;7.70;99.90
36594;DHT22;22603;47.900;8.146;2023-04-01T14:08:00;7.80;99.90
36594;DHT22;22603;47.900;8.146;2023-04-01T14:11:00;8.00;99.90
36594;DHT22;22603;47.900;8.146;2023-04-01T14:13:58;8.10;99.90
36594;DHT22;22603;47.900;8.146;2023-04-01T14:20:22;8.90;99.90
36594;DHT22;22603;47.900;8.146;2023-04-01T14:23:31;9.00;99.90
36594;DHT22;22603;47.900;8.146;2023-04-01T14:26:41;8.80;99.90
36594;DHT22;22603;47.900;8.146;2023-04-01T14:29:35;9.20;99.90
36594;DHT22;22603;47.900;8.146;2023-04-01T14:32:32;9.50;99.90
36594;DHT22;22603;47.900;8.146;2023-04-01T14:35:31;9.50;99.90
36594;DHT22;22603;47.900;8.146;2023-04-01T14:38:31;9.80;99.90
36594;DHT22;22603;47.900;8.146;2023-04-01T14:41:38;10.00;99.90
36594;DHT22;22603;47.900;8.146;2023-04-01T14:44:49;9.70;99.90
36594;DHT22;22603;47.900;8.146;2023-04-01T14:47:46;9.60;99.90
36594;DHT22;22603;47.900;8.146;2023-04-01T14:50:42;9.20;99.90
36594;DHT22;22603;47.900;8.146;2023-04-01T14:53:34;8.80;99.90
36594;DHT22;22603;47.900;8.146;2023-04-01T14:56:40;8.20;99.90
36594;DHT22;22603;47.900;8.146;2023-04-01T14:59:29;7.40;99.90
36594;DHT22;22603;47.900;8.146;2023-04-01T15:02:37;6.80;99.90
36594;DHT22;22603;47.900;8.146;2023-04-01T15:05:39;6.60;99.90
36594;DHT22;22603;47.900;8.146;2023-04-01T15:08:28;6.60;99.90
36594;DHT22;22603;47.900;8.146;2023-04-01T15:11:28;6.80;99.90
36594;DHT22;22603;47.900;8.146;2023-04-01T15:18:07;7.40;99.90
36594;DHT22;22603;47.900;8.146;2023-04-01T15:24:20;7.50;99.90
36594;DHT22;22603;47.900;8.146;2023-04-01T15:27:29;7.90;99.90
36594;DHT22;22603;47.900;8.146;2023-04-01T15:30:29;8.00;99.90
36594;DHT22;22603;47.900;8.146;2023-04-01T15:33:36;7.60;99.90
36594;DHT22;22603;47.900;8.146;2023-04-01T15:36:32;7.60;99.90
36594;DHT22;22603;47.900;8.146;2023-04-01T15:39:27;7.20;99.90
36594;DHT22;22603;47.900;8.146;2023-04-01T15:42:33;7.30;99.90
36594;DHT22;22603;47.900;8.146;2023-04-01T15:45:33;7.20;99.90
36594;DHT22;22603;47.900;8.146;2023-04-01T15:48:33;7.40;99.90
36594;DHT22;22603;47.900;8.146;2023-04-01T15:51:40;7.30;99.90
36594;DHT22;22603;47.900;8.146;2023-04-01T15:58:11;7.40;99.90
36594;DHT22;22603;47.900;8.146;2023-04-01T16:01:11;7.70;99.90
36594;DHT22;22603;47.900;8.146;2023-04-01T16:04:17;8.10;99.90
36594;DHT22;22603;47.900;8.146;2023-04-01T16:07:11;8.40;99.90
36594;DHT22;22603;47.900;8.146;2023-04-01T16:10:19;8.40;99.90
36594;DHT22;22603;47.900;8.146;2023-04-01T16:13:24;8.30;99.90
36594;DHT22;22603;47.900;8.146;2023-04-01T16:16:23;8.00;99.90
36594;DHT22;22603;47.900;8.146;2023-04-01T16:19:24;7.70;99.90
36594;DHT22;22603;47.900;8.146;2023-04-01T16:22:22;7.50;99.90
36594;DHT22;22603;47.900;8.146;2023-04-01T16:25:19;7.40;99.90
36594;DHT22;22603;47.900;8.146;2023-04-01T16:28:18;7.30;99.90
36594;DHT22;22603;47.900;8.146;2023-04-01T16:31:12;7.20;99.90
36594;DHT22;22603;47.900;8.146;2023-04-01T16:34:04;7.10;99.90
36594;DHT22;22603;47.900;8.146;2023-04-01T16:37:03;7.10;99.90
36594;DHT22;22603;47.900;8.146;2023-04-01T16:40:10;7.00;99.90
36594;DHT22;22603;47.900;8.146;2023-04-01T16:43:09;6.90;99.90
36594;DHT22;22603;47.900;8.146;2023-04-01T16:46:20;6.90;99.90
36594;DHT22;22603;47.900;8.146;2023-04-01T16:49:30;7.00;99.90
36594;DHT22;22603;47.900;8.146;2023-04-01T16:52:40;7.00;99.90
36594;DHT22;22603;47.900;8.146;2023-04-01T16:55:46;7.10;99.90
36594;DHT22;22603;47.900;8.146;2023-04-01T16:58:36;7.20;99.90
36594;DHT22;22603;47.900;8.146;2023-04-01T17:01:28;7.10;99.90
36594;DHT22;22603;47.900;8.146;2023-04-01T17:04:23;7.00;99.90
36594;DHT22;22603;47.900;8.146;2023-04-01T17:07:22;7.00;99.90
36594;DHT22;22603;47.900;8.146;2023-04-01T17:10:36;7.10;99.90
36594;DHT22;22603;47.900;8.146;2023-04-01T17:13:34;7.10;99.90
36594;DHT22;22603;47.900;8.146;2023-04-01T17:16:49;7.00;99.90
36594;DHT22;22603;47.900;8.146;2023-04-01T17:19:49;6.70;99.90
36594;DHT22;22603;47.900;8.146;2023-04-01T17:22:44;6.50;99.90
36594;DHT22;22603;47.900;8.146;2023-04-01T17:25:51;6.30;99.90
36594;DHT22;22603;47.900;8.146;2023-04-01T17:28:46;6.20;99.90
36594;DHT22;22603;47.900;8.146;2023-04-01T17:31:45;6.10;99.90
36594;DHT22;22603;47.900;8.146;2023-04-01T17:34:46;6.00;99.90
36594;DHT22;22603;47.900;8.146;2023-04-01T17:37:48;6.00;99.90
36594;DHT22;22603;47.900;8.146;2023-04-01T17:40:49;6.00;99.90
36594;DHT22;22603;47.900;8.146;2023-04-01T17:43:49;6.00;99.90
36594;DHT22;22603;47.900;8.146;2023-04-01T17:46:53;6.10;99.90
36594;DHT22;22603;47.900;8.146;2023-04-01T17:49:51;6.00;99.90
36594;DHT22;22603;47.900;8.146;2023-04-01T17:52:45;6.00;99.90
36594;DHT22;22603;47.900;8.146;2023-04-01T17:55:50;5.90;99.90
36594;DHT22;22603;47.900;8.146;2023-04-01T17:58:45;5.80;99.90
36594;DHT22;22603;47.900;8.146;2023-04-01T18:01:43;5.80;99.90
36594;DHT22;22603;47.900;8.146;2023-04-01T18:04:56;5.80;99.90
36594;DHT22;22603;47.900;8.146;2023-04-01T18:08:03;5.70;99.90
36594;DHT22;22603;47.900;8.146;2023-04-01T18:11:05;5.60;99.90
36594;DHT22;22603;47.900;8.146;2023-04-01T18:14:22;5.50;99.90
36594;DHT22;22603;47.900;8.146;2023-04-01T18:17:21;5.40;99.90
36594;DHT22;22603;47.900;8.146;2023-04-01T18:20:31;5.30;99.90
36594;DHT22;22603;47.900;8.146;2023-04-01T18:23:26;5.20;99.90
36594;DHT22;22603;47.900;8.146;2023-04-01T18:26:22;5.10;99.90
36594;DHT22;22603;47.900;8.146;2023-04-01T18:29:17;5.00;99.90
36594;DHT22;22603;47.900;8.146;2023-04-01T18:32:15;4.90;99.90
36594;DHT22;22603;47.900;8.146;2023-04-01T18:35:19;4.80;99.90
36594;DHT22;22603;47.900;8.146;2023-04-01T18:38:12;4.80;99.90
36594;DHT22;22603;47.900;8.146;2023-04-01T18:41:12;4.70;99.90
36594;DHT22;22603;47.900;8.146;2023-04-01T18:44:12;4.60;99.90
36594;DHT22;22603;47.900;8.146;2023-04-01T18:47:15;4.60;99.90
36594;DHT22;22603;47.900;8.146;2023-04-01T18:50:15;4.60;99.90
36594;DHT22;22603;47.900;8.146;2023-04-01T18:53:17;4.60;99.90
36594;DHT22;22603;47.900;8.146;2023-04-01T18:56:07;4.60;99.90
36594;DHT22;22603;47.900;8.146;2023-04-01T18:59:03;4.60;99.90
36594;DHT22;22603;47.900;8.146;2023-04-01T19:02:00;4.60;99.90
36594;DHT22;22603;47.900;8.146;2023-04-01T19:04:56;4.60;99.90
36594;DHT22;22603;47.900;8.146;2023-04-01T19:07:46;4.60;99.90
36594;DHT22;22603;47.900;8.146;2023-04-01T19:10:43;4.50;99.90
36594;DHT22;22603;47.900;8.146;2023-04-01T19:13:38;4.50;99.90
36594;DHT22;22603;47.900;8.146;2023-04-01T19:16:37;4.50;99.90
36594;DHT22;22603;47.900;8.146;2023-04-01T19:19:42;4.50;99.90
36594;DHT22;22603;47.900;8.146;2023-04-01T19:22:44;4.50;99.90
36594;DHT22;22603;47.900;8.146;2023-04-01T19:25:37;4.60;99.90
36594;DHT22;22603;47.900;8.146;2023-04-01T19:28:34;4.50;99.90
36594;DHT22;22603;47.900;8.146;2023-04-01T19:31:36;4.50;99.90
36594;DHT22;22603;47.900;8.146;2023-04-01T19:34:31;4.40;99.90
36594;DHT22;22603;47.900;8.146;2023-04-01T19:37:31;4.30;99.90
36594;DHT22;22603;47.900;8.146;2023-04-01T19:40:41;4.20;99.90
36594;DHT22;22603;47.900;8.146;2023-04-01T19:43:50;4.10;99.90
36594;DHT22;22603;47.900;8.146;2023-04-01T19:46:43;4.10;99.90
36594;DHT22;22603;47.900;8.146;2023-04-01T19:49:41;4.10;99.90
36594;DHT22;22603;47.900;8.146;2023-04-01T19:52:35;4.10;99.90
36594;DHT22;22603;47.900;8.146;2023-04-01T19:55:32;4.10;99.90
36594;DHT22;22603;47.900;8.146;2023-04-01T19:58:26;4.10;99.90
36594;DHT22;22603;47.900;8.146;2023-04-01T20:01:22;4.10;99.90
36594;DHT22;22603;47.900;8.146;2023-04-01T20:04:30;4.10;99.90
36594;DHT22;22603;47.900;8.146;2023-04-01T20:07:22;4.10;99.90
36594;DHT22;22603;47.900;8.146;2023-04-01T20:10:16;4.10;99.90
36594;DHT22;22603;47.900;8.146;2023-04-01T20:13:10;4.10;99.90
36594;DHT22;22603;47.900;8.146;2023-04-01T20:16:02;4.10;99.90